Prosperity, WV (25909)

6:12 AM EDT on September 16, 2014 (GMT -0400)
Stanaford Rd | Change Station
CLOSE
Current Station
Personal Weather Station
Location: Beckley, WV
Elevation: 2313 ft
Nearby Weather Stations

Elev 2313 ft 37.79 °N, 81.17 °W | Updated 4 minutes ago

Overcast
Overcast
59.4 °F
Feels Like 59.4 °F
N
2.2
Wind Variable Wind from SW

Today
High -- | Low -- °F
--% Chance of Precip.
Yesterday
High -- | Low -- °F
Precip. -- in
7:07 AM 7:31 PM
Waning Gibbous, 47% visible
Pressure 30.07 in
Visibility 10.0 miles
Clouds Overcast 1200 ft
Dew Point 57 °F
Humidity 93%
Rainfall 0.00 in
Snow Depth Not available.
UV 0 out of 12
Pollen 6.10 out of 12
Air Quality Not available.
Flu Activity Not available.
METAR KBKW 160951Z AUTO 27003KT 10SM OVC012 15/13 A3013 RMK AO2 SLP181 T01500128 TSNO

More Conditions Fewer Conditions

Pressure 30.07 in
Visibility 10.0 miles
Clouds Overcast 1200 ft
Dew Point 57 °F
Humidity 93%
Rainfall 0.00 in
Snow Depth Not available.
UV 0 out of 12
Pollen 6.10 out of 12
Air Quality Not available.
Flu Activity Not available.
METAR KBKW 160951Z AUTO 27003KT 10SM OVC012 15/13 A3013 RMK AO2 SLP181 T01500128 TSNO

More Conditions Fewer Conditions

10-Day Weather Forecast

Almanac

Astronomy

Sep. 16, 2014 Rise Set
Actual Time 7:07 AM EDT 7:31 PM EDT
Civil Twilight 6:41 AM EDT 7:57 PM EDT
Nautical Twilight 6:10 AM EDT 8:28 PM EDT
Astronomical Twilight 5:38 AM EDT 8:59 PM EDT
Moon 12:20 AM EDT 2:49 PM EDT
Length of Visible Light 13h 16m
Length of Day
12h 23m
Tomorrow will be 2m 25s shorter.
Waning Gibbous, 47% of the Moon is Illuminated
Today
Waning Gibbous
Sep 24
New
Oct 1
First Quarter
Oct 8
Full
Oct 15
Last Quarter

Today's Extremes

State Highs State Lows

Community

WunderPhotos

Upload Photos

1,753,717 photos uploaded!

WunderBlogs® & News

Nearby

Snow Depth

Station Depth Elevation
No new snow has been reported.

Earthquake Activity

City Distance Mag. Time & Date
No recent earthquake activity has been reported nearby.
Minimum magnitude displayed is 2.5.

Coastal Water Temperatures

Place Temperature
No Stations Reporting

Nearby Weather Stations